Time;durP1;ratioP1;P1;durP2;ratioP2;P2;SDS_P1;SDS_P2;PMS_P1;PMS_P2;Temp;Humidity;BMP_temperature;BMP_pressure;BME280_temperature;BME280_humidity;BME280_pressure;Samples;Min_cycle;Max_cycle;Signal;HPM_P1;HPM_P2
2021/11/05 00:00:30;;;;;;;78.25;41.95;;;7.50;92.30;;;;;;5075921;28;20060;-37
2021/11/05 00:02:57;;;;;;;81.38;40.95;;;7.60;91.80;;;;;;5076229;28;20468;-37
2021/11/05 00:05:32;;;;;;;88.22;43.47;;;7.70;91.70;;;;;;5075790;28;20041;-37
2021/11/05 00:07:58;;;;;;;79.00;40.20;;;7.70;91.60;;;;;;5076197;28;20024;-37
2021/11/05 00:10:24;;;;;;;81.85;41.55;;;7.70;91.50;;;;;;5076086;28;20460;-37
2021/11/05 00:12:51;;;;;;;73.82;41.15;;;7.60;91.40;;;;;;5075820;28;20020;-37
2021/11/05 00:15:17;;;;;;;72.45;37.97;;;7.60;91.70;;;;;;5076005;28;20491;-37
2021/11/05 00:17:43;;;;;;;65.20;38.10;;;7.70;91.80;;;;;;5076119;28;20492;-37
2021/11/05 00:20:10;;;;;;;75.90;43.00;;;7.70;91.70;;;;;;5075751;28;20388;-37
2021/11/05 00:22:36;;;;;;;80.85;42.30;;;7.80;91.80;;;;;;5075577;28;20025;-37
2021/11/05 00:25:06;;;;;;;76.57;37.80;;;7.80;91.40;;;;;;5075919;28;20030;-38
2021/11/05 00:27:32;;;;;;;65.43;33.67;;;7.80;91.50;;;;;;5075941;28;20429;-37
2021/11/05 00:29:58;;;;;;;71.43;35.63;;;7.80;91.60;;;;;;5075528;28;20025;-37
2021/11/05 00:32:24;;;;;;;58.15;32.50;;;7.70;91.40;;;;;;5075541;28;20338;-37
2021/11/05 00:34:49;;;;;;;56.38;31.45;;;7.80;91.60;;;;;;5075728;28;20024;-37
2021/11/05 00:37:15;;;;;;;54.03;29.27;;;7.80;91.10;;;;;;5075853;28;20020;-37
2021/11/05 00:39:41;;;;;;;45.80;26.73;;;7.80;90.80;;;;;;5075754;28;20058;-37
2021/11/05 00:42:06;;;;;;;45.83;27.35;;;7.80;90.70;;;;;;5075717;28;20099;-37
2021/11/05 00:44:32;;;;;;;52.42;28.90;;;7.70;90.40;;;;;;5075739;28;20025;-37
2021/11/05 00:46:58;;;;;;;48.00;27.48;;;7.70;90.40;;;;;;5075562;28;20020;-37
2021/11/05 00:49:24;;;;;;;47.97;26.10;;;7.60;90.20;;;;;;5074147;28;20111;-37
2021/11/05 00:51:50;;;;;;;53.42;30.20;;;7.50;90.30;;;;;;5075294;28;20430;-37
2021/11/05 00:54:15;;;;;;;51.03;27.95;;;7.40;90.60;;;;;;5075429;28;20095;-37
2021/11/05 00:56:41;;;;;;;53.60;29.00;;;7.40;90.80;;;;;;5075241;28;20121;-37
2021/11/05 00:59:07;;;;;;;59.22;31.20;;;7.30;90.90;;;;;;5075275;28;20017;-37
2021/11/05 01:01:32;;;;;;;53.92;27.67;;;7.30;91.00;;;;;;5075113;28;20029;-37
2021/11/05 01:03:58;;;;;;;57.95;28.50;;;7.30;91.10;;;;;;5074882;28;20057;-37
2021/11/05 01:06:24;;;;;;;51.42;27.45;;;7.30;91.00;;;;;;5074625;28;20127;-37
2021/11/05 01:08:49;;;;;;;54.08;26.85;;;7.30;91.20;;;;;;5074992;28;20465;-37
2021/11/05 01:11:15;;;;;;;58.58;29.20;;;7.20;91.00;;;;;;5074657;28;20032;-37
2021/11/05 01:13:41;;;;;;;61.38;31.42;;;7.20;91.10;;;;;;5074905;28;20021;-37
2021/11/05 01:16:06;;;;;;;62.60;31.08;;;7.30;91.20;;;;;;5074573;28;20453;-37
2021/11/05 01:18:32;;;;;;;58.05;29.92;;;7.20;91.20;;;;;;5074857;28;20436;-37
2021/11/05 01:20:58;;;;;;;61.97;31.00;;;7.30;91.20;;;;;;5074434;28;20070;-37
2021/11/05 01:23:24;;;;;;;62.53;32.22;;;7.30;91.20;;;;;;5074468;28;20028;-37
2021/11/05 01:25:50;;;;;;;59.58;29.88;;;7.30;91.20;;;;;;5074353;28;20024;-37
2021/11/05 01:28:15;;;;;;;51.72;27.90;;;7.30;91.20;;;;;;5074580;28;20028;-37
2021/11/05 01:30:41;;;;;;;63.15;32.33;;;7.30;91.40;;;;;;5074100;28;20031;-37
2021/11/05 01:33:07;;;;;;;56.65;29.38;;;7.30;91.30;;;;;;5074589;28;20020;-37
2021/11/05 01:35:37;;;;;;;58.47;30.60;;;7.30;91.20;;;;;;5074383;28;20048;-37
2021/11/05 01:38:06;;;;;;;59.42;28.95;;;7.30;91.20;;;;;;5074300;28;20326;-37
2021/11/05 01:40:32;;;;;;;58.15;30.48;;;7.40;91.10;;;;;;5073942;28;20085;-38
2021/11/05 01:43:01;;;;;;;50.65;27.60;;;7.40;91.00;;;;;;5074175;28;20071;-37
2021/11/05 01:45:29;;;;;;;57.42;28.05;;;7.30;90.90;;;;;;5074325;28;20047;-37
2021/11/05 01:47:55;;;;;;;61.30;31.33;;;7.40;91.50;;;;;;5073912;28;20077;-37
2021/11/05 01:50:21;;;;;;;57.65;30.05;;;7.40;91.40;;;;;;5074023;28;20111;-37
2021/11/05 01:52:48;;;;;;;59.35;30.85;;;7.50;91.10;;;;;;5073855;28;20380;-37
2021/11/05 01:55:14;;;;;;;57.97;30.30;;;7.50;90.80;;;;;;5073720;28;20078;-37
2021/11/05 01:57:41;;;;;;;56.05;29.98;;;7.60;90.80;;;;;;5073781;28;20090;-37
2021/11/05 02:00:10;;;;;;;59.30;30.50;;;7.50;90.80;;;;;;5073501;28;20036;-37
2021/11/05 02:02:35;;;;;;;58.03;30.33;;;7.70;90.90;;;;;;5073424;28;20108;-37
2021/11/05 02:05:01;;;;;;;59.33;29.92;;;7.70;90.60;;;;;;5072952;28;20519;-38
2021/11/05 02:07:28;;;;;;;59.55;30.73;;;7.80;90.20;;;;;;5073075;28;20086;-37
2021/11/05 02:09:56;;;;;;;51.40;28.33;;;7.70;90.50;;;;;;5073441;28;20028;-37
2021/11/05 02:12:22;;;;;;;56.13;30.38;;;7.80;90.50;;;;;;5073389;28;20029;-37
2021/11/05 02:14:50;;;;;;;48.20;27.20;;;7.70;90.40;;;;;;5073217;28;20020;-37
2021/11/05 02:17:16;;;;;;;48.22;27.10;;;7.70;90.50;;;;;;5071778;28;20058;-37
2021/11/05 02:19:42;;;;;;;55.72;30.52;;;7.70;90.50;;;;;;5073058;28;20024;-37
2021/11/05 02:22:08;;;;;;;51.65;27.83;;;7.80;90.10;;;;;;5073030;28;20032;-37
2021/11/05 02:24:34;;;;;;;58.85;29.20;;;7.80;90.00;;;;;;5073077;28;20031;-37
2021/11/05 02:27:01;;;;;;;51.58;27.17;;;7.70;90.40;;;;;;5072928;28;20468;-37
2021/11/05 02:29:29;;;;;;;52.53;28.17;;;7.70;90.40;;;;;;5073202;28;20066;-37
2021/11/05 02:31:56;;;;;;;59.28;29.13;;;7.70;90.00;;;;;;5072835;28;20036;-36
2021/11/05 02:34:22;;;;;;;54.47;28.25;;;7.80;90.30;;;;;;5072841;28;20029;-37
2021/11/05 02:36:48;;;;;;;51.03;26.65;;;7.80;90.10;;;;;;5073074;28;20096;-38
2021/11/05 02:39:14;;;;;;;58.90;29.83;;;7.70;89.90;;;;;;5071788;28;20473;-37
2021/11/05 02:41:44;;;;;;;56.00;26.75;;;7.70;90.60;;;;;;5073060;28;20035;-37
2021/11/05 02:44:10;;;;;;;;;;;7.80;90.50;;;;;;5073425;28;20033;-37
2021/11/05 02:46:36;;;;;;;57.10;26.98;;;7.80;90.10;;;;;;5073045;28;20021;-37
2021/11/05 02:49:05;;;;;;;49.30;28.13;;;7.80;90.40;;;;;;5073013;28;20451;-37
2021/11/05 02:51:32;;;;;;;52.38;29.02;;;7.80;90.80;;;;;;5072830;28;20029;-37
2021/11/05 02:53:58;;;;;;;60.78;31.08;;;7.80;90.90;;;;;;5072858;28;20017;-37
2021/11/05 02:56:24;;;;;;;58.85;29.77;;;7.90;90.40;;;;;;5072847;28;20071;-37
2021/11/05 02:58:52;;;;;;;56.35;31.05;;;7.90;90.20;;;;;;5072832;28;20046;-37
2021/11/05 03:01:19;;;;;;;59.58;29.83;;;7.90;90.20;;;;;;5073155;28;20051;-37
2021/11/05 03:03:44;;;;;;;57.85;28.88;;;7.90;90.30;;;;;;5072978;28;20534;-37
2021/11/05 03:06:10;;;;;;;59.78;26.08;;;7.80;90.10;;;;;;5071269;28;20049;-37
2021/11/05 03:08:36;;;;;;;59.95;29.63;;;7.70;90.70;;;;;;5072873;28;20029;-37
2021/11/05 03:11:02;;;;;;;65.28;29.08;;;7.70;90.60;;;;;;5072698;28;20166;-37
2021/11/05 03:13:28;;;;;;;74.65;30.55;;;7.60;90.90;;;;;;5072686;28;20100;-37
2021/11/05 03:15:54;;;;;;;67.50;28.45;;;7.60;91.00;;;;;;5072949;28;20027;-37
2021/11/05 03:18:20;;;;;;;73.72;28.45;;;7.60;91.10;;;;;;5074390;28;20040;-37
2021/11/05 03:20:46;;;;;;;63.70;26.27;;;7.50;91.40;;;;;;5077001;28;20048;-36
2021/11/05 03:23:14;;;;;;;53.08;24.45;;;7.50;91.50;;;;;;5076662;28;20056;-36
2021/11/05 03:25:40;;;;;;;59.03;25.33;;;7.50;91.70;;;;;;5076830;28;20028;-36
2021/11/05 03:28:06;;;;;;;57.08;23.15;;;7.60;91.60;;;;;;5076887;28;20102;-37
2021/11/05 03:30:32;;;;;;;62.85;26.23;;;7.50;91.60;;;;;;5076513;28;20044;-36
2021/11/05 03:32:59;;;;;;;55.80;25.55;;;7.50;91.60;;;;;;5076786;28;20021;-37
2021/11/05 03:35:25;;;;;;;56.47;26.35;;;7.50;91.90;;;;;;5076711;28;20020;-36
2021/11/05 03:37:51;;;;;;;58.55;26.08;;;7.50;91.60;;;;;;5075123;28;20380;-36
2021/11/05 03:40:17;;;;;;;56.40;25.02;;;7.50;91.80;;;;;;5076342;28;20029;-36
2021/11/05 03:42:48;;;;;;;55.10;23.45;;;7.50;91.80;;;;;;5076255;28;20074;-36
2021/11/05 03:45:14;;;;;;;63.45;24.65;;;7.60;91.50;;;;;;5076314;28;20166;-37
2021/11/05 03:47:40;;;;;;;52.58;23.20;;;7.60;91.10;;;;;;5076055;28;20517;-37
2021/11/05 03:50:06;;;;;;;56.40;24.30;;;7.70;91.10;;;;;;5074782;28;21992;-36
2021/11/05 03:52:31;;;;;;;54.30;23.67;;;7.50;91.10;;;;;;5076414;28;20024;-36
2021/11/05 03:54:58;;;;;;;49.25;23.45;;;7.70;90.90;;;;;;5074739;28;20135;-36
2021/11/05 03:57:23;;;;;;;59.40;25.83;;;7.70;90.90;;;;;;5075988;28;20031;-36
2021/11/05 03:59:49;;;;;;;50.10;24.15;;;7.50;90.90;;;;;;5075954;28;20017;-36
2021/11/05 04:02:14;;;;;;;49.47;24.13;;;7.60;91.40;;;;;;5074621;28;20460;-36
2021/11/05 04:04:40;;;;;;;50.20;23.30;;;7.60;91.30;;;;;;5076189;28;20021;-36
2021/11/05 04:07:06;;;;;;;56.70;27.67;;;7.70;91.20;;;;;;5075754;28;20466;-36
2021/11/05 04:09:32;;;;;;;60.00;27.67;;;7.80;91.10;;;;;;5075727;28;20082;-36
2021/11/05 04:11:57;;;;;;;67.47;28.52;;;7.70;91.10;;;;;;5075695;28;20029;-36
2021/11/05 04:14:23;;;;;;;65.20;30.40;;;7.80;91.10;;;;;;5075909;28;20027;-36
2021/11/05 04:16:49;;;;;;;73.80;30.15;;;7.80;91.30;;;;;;5075926;28;20055;-37
2021/11/05 04:19:14;;;;;;;63.33;28.38;;;7.70;91.20;;;;;;5074172;28;20035;-36
2021/11/05 04:21:40;;;;;;;64.30;30.55;;;7.80;91.30;;;;;;5075638;28;20044;-36
2021/11/05 04:24:06;;;;;;;70.57;30.15;;;7.80;91.20;;;;;;5075769;28;20044;-36
2021/11/05 04:26:33;;;;;;;61.47;29.67;;;7.70;91.30;;;;;;5075644;28;20024;-36
2021/11/05 04:28:59;;;;;;;62.40;26.40;;;7.80;91.40;;;;;;5074863;28;20058;-36
2021/11/05 04:31:25;;;;;;;65.60;29.02;;;7.70;91.00;;;;;;5075347;28;20081;-36
2021/11/05 04:33:51;;;;;;;61.90;28.60;;;7.60;91.30;;;;;;5075379;28;20021;-37
2021/11/05 04:36:18;;;;;;;60.92;28.17;;;7.70;91.50;;;;;;5075346;28;20025;-36
2021/11/05 04:38:44;;;;;;;63.63;28.77;;;7.70;91.50;;;;;;5075583;28;20024;-36
2021/11/05 04:41:09;;;;;;;65.13;28.77;;;7.70;91.60;;;;;;5075333;28;20029;-36
2021/11/05 04:43:35;;;;;;;58.17;27.90;;;7.80;91.50;;;;;;5075202;28;20024;-36
2021/11/05 04:46:01;;;;;;;64.60;29.90;;;7.70;91.30;;;;;;5075382;28;20464;-36
2021/11/05 04:48:27;;;;;;;72.80;30.65;;;7.60;91.70;;;;;;5075166;28;20024;-36
2021/11/05 04:50:52;;;;;;;72.38;29.02;;;7.70;91.70;;;;;;5075015;28;20027;-36
2021/11/05 04:53:18;;;;;;;82.43;30.30;;;7.80;91.30;;;;;;5075139;28;20096;-36
2021/11/05 04:55:44;;;;;;;77.80;30.48;;;7.70;91.00;;;;;;5075133;28;20021;-37
2021/11/05 04:58:09;;;;;;;70.75;30.73;;;7.60;91.30;;;;;;5074733;28;20023;-36
2021/11/05 05:00:36;;;;;;;71.30;28.30;;;7.50;91.60;;;;;;5074855;28;20032;-36
2021/11/05 05:03:01;;;;;;;69.40;27.60;;;7.50;91.60;;;;;;5074759;28;20036;-36
2021/11/05 05:05:30;;;;;;;61.83;27.67;;;7.50;91.60;;;;;;5074727;28;20099;-36
2021/11/05 05:07:57;;;;;;;58.55;23.45;;;7.60;91.10;;;;;;5074993;28;20032;-36
2021/11/05 05:10:23;;;;;;;56.58;25.17;;;7.50;90.90;;;;;;5074817;28;20028;-36
2021/11/05 05:12:49;;;;;;;48.85;25.83;;;7.50;91.20;;;;;;5073444;28;20031;-36
2021/11/05 05:15:15;;;;;;;58.47;25.17;;;7.50;91.20;;;;;;5074569;28;20027;-37
2021/11/05 05:17:42;;;;;;;59.42;24.65;;;7.60;91.10;;;;;;5074693;28;20465;-37
2021/11/05 05:20:10;;;;;;;65.45;27.65;;;7.60;90.90;;;;;;5074440;28;20432;-37
2021/11/05 05:22:37;;;;;;;64.65;27.70;;;7.50;91.00;;;;;;5074145;28;20024;-37
2021/11/05 05:25:04;;;;;;;74.68;31.63;;;7.60;91.00;;;;;;5074393;28;20143;-37
2021/11/05 05:27:30;;;;;;;66.38;28.83;;;7.60;91.00;;;;;;5074550;28;20166;-37
2021/11/05 05:29:56;;;;;;;77.00;29.35;;;7.70;91.00;;;;;;5074192;28;20054;-37
2021/11/05 05:32:23;;;;;;;76.05;30.73;;;7.60;91.20;;;;;;5074372;28;20032;-36
2021/11/05 05:34:49;;;;;;;74.75;27.77;;;7.70;90.90;;;;;;5074191;28;20035;-36
2021/11/05 05:37:14;;;;;;;74.53;28.50;;;7.50;90.80;;;;;;5074358;28;20104;-36
2021/11/05 05:39:40;;;;;;;76.35;28.55;;;7.50;91.10;;;;;;5074176;28;20027;-37
2021/11/05 05:42:06;;;;;;;71.43;27.60;;;7.40;91.20;;;;;;5073251;28;20112;-37
2021/11/05 05:44:32;;;;;;;74.65;28.45;;;7.40;91.40;;;;;;5074025;28;20464;-36
2021/11/05 05:46:59;;;;;;;80.18;30.33;;;7.40;91.20;;;;;;5074030;28;20025;-36
2021/11/05 05:49:24;;;;;;;79.70;28.85;;;7.40;91.20;;;;;;5073867;28;20028;-37
2021/11/05 05:51:50;;;;;;;68.07;28.58;;;7.30;91.40;;;;;;5073827;28;20025;-36
2021/11/05 05:54:16;;;;;;;74.18;28.48;;;7.30;91.50;;;;;;5073986;28;20024;-36
2021/11/05 05:56:41;;;;;;;83.55;29.30;;;7.30;91.80;;;;;;5073620;28;20025;-36
2021/11/05 05:59:07;;;;;;;76.50;33.38;;;7.30;91.70;;;;;;5073645;28;20021;-37
2021/11/05 06:01:33;;;;;;;78.65;30.83;;;7.30;92.00;;;;;;5073635;28;20572;-36
2021/11/05 06:03:59;;;;;;;69.70;30.75;;;7.30;91.70;;;;;;5073542;28;20357;-36
2021/11/05 06:06:29;;;;;;;67.45;27.52;;;7.30;91.70;;;;;;5073174;28;20135;-36
2021/11/05 06:08:55;;;;;;;67.00;29.73;;;7.30;91.80;;;;;;5073219;28;20472;-36
2021/11/05 06:11:21;;;;;;;86.32;33.28;;;7.30;91.70;;;;;;5073468;28;20029;-36
2021/11/05 06:13:47;;;;;;;71.65;32.63;;;7.30;91.80;;;;;;5073228;28;20020;-36
2021/11/05 06:16:13;;;;;;;78.57;32.38;;;7.40;91.90;;;;;;5073518;28;20162;-36
2021/11/05 06:18:38;;;;;;;80.00;30.10;;;7.30;91.80;;;;;;5071637;28;20025;-37
2021/11/05 06:21:04;;;;;;;79.97;31.33;;;7.40;91.80;;;;;;5072890;28;20031;-37
2021/11/05 06:23:31;;;;;;;77.43;30.30;;;7.40;91.70;;;;;;5073348;28;20032;-41
2021/11/05 06:25:57;;;;;;;78.80;32.00;;;7.50;91.60;;;;;;5073411;28;20100;-37
2021/11/05 06:28:23;;;;;;;103.18;33.22;;;7.30;91.50;;;;;;5072826;28;20496;-37
2021/11/05 06:30:49;;;;;;;106.05;33.38;;;7.30;91.90;;;;;;5072853;28;20028;-37
2021/11/05 06:33:15;;;;;;;91.07;32.80;;;7.30;92.40;;;;;;5072774;28;20033;-37
2021/11/05 06:35:41;;;;;;;108.22;36.15;;;7.20;92.50;;;;;;5072992;28;20092;-37
2021/11/05 06:38:06;;;;;;;109.43;35.60;;;7.30;92.50;;;;;;5074611;28;20397;-37
2021/11/05 06:40:32;;;;;;;101.88;36.70;;;7.30;92.20;;;;;;5073106;28;20060;-37
2021/11/05 06:42:58;;;;;;;107.05;36.92;;;7.30;92.40;;;;;;5072779;28;20021;-37
2021/11/05 06:45:28;;;;;;;115.90;37.53;;;7.30;92.40;;;;;;5071351;28;20078;-37
2021/11/05 06:47:54;;;;;;;112.47;36.25;;;7.30;92.50;;;;;;5072653;28;20039;-37
2021/11/05 06:50:20;;;;;;;107.03;35.80;;;7.30;92.50;;;;;;5072128;28;20028;-37
2021/11/05 06:52:45;;;;;;;111.45;37.80;;;7.30;92.70;;;;;;5072601;28;20028;-37
2021/11/05 06:55:11;;;;;;;108.50;37.83;;;7.30;92.70;;;;;;5072508;28;20032;-37
2021/11/05 06:57:37;;;;;;;115.15;41.83;;;7.40;92.60;;;;;;5072461;28;20358;-37
2021/11/05 07:00:06;;;;;;;133.48;40.92;;;7.40;92.40;;;;;;5072554;28;20029;-37
2021/11/05 07:02:32;;;;;;;143.10;44.80;;;7.30;92.60;;;;;;5072569;28;20491;-37
2021/11/05 07:04:58;;;;;;;146.57;43.92;;;7.30;92.80;;;;;;5071540;28;20488;-38
2021/11/05 07:07:24;;;;;;;115.82;41.67;;;7.40;92.70;;;;;;5071282;28;20145;-38
2021/11/05 07:09:49;;;;;;;136.27;43.83;;;7.30;92.70;;;;;;5072558;28;20070;-38
2021/11/05 07:12:16;;;;;;;133.20;41.75;;;7.40;92.60;;;;;;5070890;28;20021;-38
2021/11/05 07:14:43;;;;;;;138.25;43.88;;;7.40;92.60;;;;;;5071980;28;20028;-37
2021/11/05 07:17:09;;;;;;;115.90;38.10;;;7.40;92.60;;;;;;5072142;28;20111;-37
2021/11/05 07:19:35;;;;;;;136.32;42.33;;;7.30;92.70;;;;;;5072262;28;20100;-39
2021/11/05 07:22:03;;;;;;;133.20;40.55;;;7.30;92.90;;;;;;5071986;28;20028;-37
2021/11/05 07:24:36;;;;;;;128.63;40.38;;;7.30;93.00;;;;;;5072052;28;20067;-37
2021/11/05 07:27:05;;;;;;;135.70;45.22;;;7.20;93.10;;;;;;5072296;28;20027;-37
2021/11/05 07:29:32;;;;;;;130.70;38.30;;;7.20;93.20;;;;;;5071878;28;20096;-37
2021/11/05 07:32:03;;;;;;;148.52;45.63;;;7.30;93.10;;;;;;5071383;28;20036;-37
2021/11/05 07:34:32;;;;;;;127.90;42.08;;;7.30;93.00;;;;;;5071907;28;20028;-37
2021/11/05 07:36:59;;;;;;;127.38;40.55;;;7.40;92.90;;;;;;5071875;28;20357;-37
2021/11/05 07:39:25;;;;;;;131.75;43.50;;;7.50;92.70;;;;;;5071980;28;20155;-37
2021/11/05 07:41:50;;;;;;;133.02;46.17;;;7.40;92.50;;;;;;5071913;28;20055;-39
2021/11/05 07:44:16;;;;;;;115.25;40.42;;;7.40;92.70;;;;;;5071108;28;20024;-37
2021/11/05 07:46:44;;;;;;;123.35;41.95;;;7.30;92.70;;;;;;5071540;28;20029;-37
2021/11/05 07:49:10;;;;;;;124.22;39.78;;;7.30;92.70;;;;;;5071846;28;20036;-38
2021/11/05 07:51:36;;;;;;;116.65;42.60;;;7.40;92.80;;;;;;5070304;28;20118;-37
2021/11/05 07:54:02;;;;;;;130.90;40.58;;;7.50;92.40;;;;;;5071716;28;20029;-38
2021/11/05 07:56:27;;;;;;;108.60;39.28;;;7.50;92.40;;;;;;5071758;28;20053;-38
2021/11/05 07:58:53;;;;;;;111.60;36.95;;;7.30;92.70;;;;;;5071553;28;20028;-37
2021/11/05 08:01:19;;;;;;;110.25;35.95;;;7.40;92.90;;;;;;5071633;28;20025;-37
2021/11/05 08:03:44;;;;;;;111.70;37.80;;;7.40;93.00;;;;;;5072186;28;20052;-37
2021/11/05 08:06:10;;;;;;;102.40;37.05;;;7.40;92.80;;;;;;5075295;28;20052;-37
2021/11/05 08:08:36;;;;;;;108.65;36.10;;;7.40;92.80;;;;;;5073661;28;20116;-38
2021/11/05 08:11:02;;;;;;;106.53;37.65;;;7.40;92.60;;;;;;5074914;28;20029;-37
2021/11/05 08:13:28;;;;;;;121.70;43.65;;;7.30;92.70;;;;;;5075148;28;20024;-37
2021/11/05 08:15:54;;;;;;;127.82;40.22;;;7.30;93.30;;;;;;5075516;28;20435;-37
2021/11/05 08:18:20;;;;;;;126.00;40.53;;;7.40;93.20;;;;;;5057305;28;20063;-37
2021/11/05 08:20:46;;;;;;;121.68;40.10;;;7.40;93.10;;;;;;5075330;28;20448;-37
2021/11/05 08:23:12;;;;;;;125.93;38.47;;;7.50;92.80;;;;;;5075091;28;20032;-37
2021/11/05 08:25:38;;;;;;;122.90;42.50;;;7.70;92.60;;;;;;5074860;28;20079;-38
2021/11/05 08:28:04;;;;;;;125.78;47.13;;;7.70;92.00;;;;;;5074230;28;20496;-36
2021/11/05 08:30:30;;;;;;;115.25;39.63;;;7.60;91.90;;;;;;5074252;28;20033;-37
2021/11/05 08:32:59;;;;;;;127.60;43.42;;;7.60;92.10;;;;;;5074619;28;20471;-39
2021/11/05 08:35:28;;;;;;;120.45;40.42;;;7.50;92.50;;;;;;5074725;28;20031;-36
2021/11/05 08:37:55;;;;;;;128.90;41.92;;;7.50;92.70;;;;;;5074565;28;20028;-37
2021/11/05 08:40:21;;;;;;;141.00;44.10;;;7.40;92.90;;;;;;5073164;28;20108;-37
2021/11/05 08:42:47;;;;;;;133.32;41.72;;;7.60;93.00;;;;;;5074292;28;20029;-37
2021/11/05 08:45:13;;;;;;;135.13;40.53;;;7.80;92.80;;;;;;5073868;28;20345;-37
2021/11/05 08:47:41;;;;;;;125.35;41.58;;;7.90;92.30;;;;;;5073855;28;20107;-37
2021/11/05 08:50:15;;;;;;;132.18;45.78;;;7.80;92.00;;;;;;5074704;28;20024;-38
2021/11/05 08:52:41;;;;;;;113.45;38.05;;;7.90;92.10;;;;;;5074610;28;20100;-37
2021/11/05 08:55:08;;;;;;;101.55;36.15;;;8.20;91.90;;;;;;5074500;28;20063;-37
2021/11/05 08:57:36;;;;;;;101.63;35.72;;;8.10;91.10;;;;;;5074004;28;20025;-37
2021/11/05 09:00:07;;;;;;;114.15;38.38;;;8.10;91.50;;;;;;5074620;28;20020;-37
2021/11/05 09:02:33;;;;;;;99.78;34.47;;;8.10;91.20;;;;;;5074178;28;20478;-37
2021/11/05 09:04:59;;;;;;;115.95;42.08;;;8.10;91.20;;;;;;5074093;28;20031;-38
2021/11/05 09:07:25;;;;;;;93.20;36.67;;;8.20;91.20;;;;;;5074182;28;20071;-37
2021/11/05 09:09:51;;;;;;;102.38;37.55;;;8.30;91.10;;;;;;5074046;28;20143;-37
2021/11/05 09:12:18;;;;;;;111.20;39.65;;;8.30;90.70;;;;;;5075826;28;20028;-38
2021/11/05 09:14:43;;;;;;;98.00;37.63;;;8.30;90.90;;;;;;5074025;28;20020;-38
2021/11/05 09:17:09;;;;;;;93.38;36.53;;;8.40;90.20;;;;;;5073807;28;20099;-37
2021/11/05 09:19:35;;;;;;;110.47;38.75;;;8.30;90.10;;;;;;5073840;28;20028;-39
2021/11/05 09:22:02;;;;;;;91.65;36.55;;;8.30;90.60;;;;;;5073437;28;20033;-36
2021/11/05 09:24:27;;;;;;;101.95;39.65;;;8.20;90.40;;;;;;5072578;28;20036;-38
2021/11/05 09:26:53;;;;;;;105.07;41.78;;;8.20;91.00;;;;;;5074279;28;20108;-38
2021/11/05 09:29:19;;;;;;;89.68;38.03;;;8.20;91.00;;;;;;5074030;28;20110;-38
2021/11/05 09:31:45;;;;;;;99.60;38.08;;;8.30;90.20;;;;;;5074226;28;20344;-38
2021/11/05 09:34:10;;;;;;;121.18;52.28;;;8.30;90.50;;;;;;5073971;28;20082;-37
2021/11/05 09:36:36;;;;;;;90.68;32.85;;;8.30;90.70;;;;;;5073671;28;20055;-37
2021/11/05 09:39:03;;;;;;;98.25;35.17;;;8.60;90.20;;;;;;5074074;28;20473;-37
2021/11/05 09:41:30;;;;;;;86.82;36.00;;;8.40;89.60;;;;;;5073489;28;20075;-36
2021/11/05 09:43:56;;;;;;;102.43;37.83;;;8.30;90.30;;;;;;5073468;28;20067;-36
2021/11/05 09:46:21;;;;;;;99.80;39.10;;;8.30;90.80;;;;;;5073120;28;20397;-36
2021/11/05 09:48:49;;;;;;;100.72;37.13;;;8.20;90.60;;;;;;5073115;28;20141;-38
2021/11/05 09:51:15;;;;;;;91.38;38.03;;;8.20;90.70;;;;;;5073355;28;20032;-36
2021/11/05 09:53:41;;;;;;;98.03;38.97;;;8.20;91.00;;;;;;5073218;28;20073;-37
2021/11/05 09:56:10;;;;;;;104.63;36.22;;;8.40;90.60;;;;;;5073267;28;20016;-37
2021/11/05 09:58:42;;;;;;;105.85;41.40;;;8.50;89.80;;;;;;5073602;28;20024;-36
2021/11/05 10:01:09;;;;;;;100.63;36.60;;;8.50;89.60;;;;;;5073204;28;20039;-37
2021/11/05 10:03:36;;;;;;;98.13;40.88;;;8.60;89.50;;;;;;5055008;28;20110;-37
2021/11/05 10:06:05;;;;;;;87.10;35.72;;;8.80;89.00;;;;;;5072672;28;20045;-37
2021/11/05 10:08:33;;;;;;;96.25;35.42;;;8.80;88.70;;;;;;5073150;28;20464;-37
2021/11/05 10:11:01;;;;;;;93.20;36.42;;;8.60;89.00;;;;;;5072603;28;20361;-36
2021/11/05 10:13:27;;;;;;;105.40;42.30;;;8.60;89.60;;;;;;5072948;28;20020;-37
2021/11/05 10:15:56;;;;;;;85.43;35.55;;;8.50;89.90;;;;;;5072856;28;20045;-38
2021/11/05 10:18:31;;;;;;;94.97;39.38;;;8.70;89.30;;;;;;5071708;28;20384;-39
2021/11/05 10:21:13;;;;;;;86.72;37.55;;;8.80;88.60;;;;;;5073220;28;20128;-38
2021/11/05 10:23:41;;;;;;;93.03;33.50;;;8.70;88.90;;;;;;5071985;28;20021;-37
2021/11/05 10:26:08;;;;;;;89.80;36.63;;;8.80;88.40;;;;;;5072407;28;20502;-36
2021/11/05 10:28:38;;;;;;;88.47;38.28;;;8.90;88.10;;;;;;5072773;28;20024;-36
2021/11/05 10:31:07;;;;;;;97.30;41.70;;;8.90;88.00;;;;;;5071850;28;20101;-37
2021/11/05 10:33:42;;;;;;;94.82;36.92;;;8.80;88.30;;;;;;5072819;28;20509;-36
2021/11/05 10:36:10;;;;;;;83.18;36.42;;;8.80;88.60;;;;;;5072547;28;20465;-36
2021/11/05 10:38:44;;;;;;;94.53;38.97;;;9.00;88.30;;;;;;5070759;28;20025;-36
2021/11/05 10:41:12;;;;;;;91.32;37.30;;;9.10;87.60;;;;;;5055117;28;20029;-36
2021/11/05 10:43:43;;;;;;;91.18;34.42;;;9.20;87.10;;;;;;5071793;28;20029;-37
2021/11/05 10:46:31;;;;;;;94.30;35.17;;;9.00;87.60;;;;;;5070859;28;20050;-36
2021/11/05 10:49:15;;;;;;;89.45;35.50;;;9.10;87.70;;;;;;5072360;28;20411;-37
2021/11/05 10:51:41;;;;;;;80.30;31.95;;;9.30;87.10;;;;;;5071935;28;20508;-36
2021/11/05 10:54:06;;;;;;;74.18;30.15;;;9.20;87.00;;;;;;5070734;28;20070;-37
2021/11/05 10:56:33;;;;;;;85.75;36.72;;;9.30;86.80;;;;;;5071597;28;20032;-37
2021/11/05 10:59:04;;;;;;;86.38;36.03;;;9.20;87.00;;;;;;5071820;28;20031;-36
2021/11/05 11:01:34;;;;;;;81.13;34.97;;;9.30;86.90;;;;;;5072128;28;20033;-36
2021/11/05 11:04:04;;;;;;;76.18;32.53;;;9.60;86.90;;;;;;5071940;28;20059;-36
2021/11/05 11:06:43;;;;;;;78.60;31.40;;;9.80;85.00;;;;;;5071746;28;20564;-37
2021/11/05 11:09:11;;;;;;;79.80;36.38;;;9.80;84.80;;;;;;5070772;28;20032;-39
2021/11/05 11:11:49;;;;;;;82.75;38.45;;;9.50;86.20;;;;;;5072286;28;20031;-37
2021/11/05 11:14:30;;;;;;;91.93;37.97;;;9.70;86.10;;;;;;5071491;28;20036;-37
2021/11/05 11:16:56;;;;;;;82.68;37.33;;;9.60;86.40;;;;;;5071948;28;20078;-36
2021/11/05 11:19:26;;;;;;;80.82;36.22;;;9.70;85.70;;;;;;5071902;28;20033;-37
2021/11/05 11:22:01;;;;;;;66.87;32.53;;;9.80;85.40;;;;;;5072062;28;20222;-37
2021/11/05 11:24:29;;;;;;;78.90;33.00;;;10.00;85.00;;;;;;5072113;28;20020;-36
2021/11/05 11:26:57;;;;;;;86.55;38.13;;;10.30;84.00;;;;;;5072658;28;20106;-37
2021/11/05 11:29:25;;;;;;;77.13;35.40;;;10.60;82.80;;;;;;5071957;28;20086;-37
2021/11/05 11:31:54;;;;;;;65.90;32.60;;;10.50;83.10;;;;;;5071624;28;20024;-37
2021/11/05 11:34:20;;;;;;;79.13;33.00;;;10.20;83.60;;;;;;5072002;28;20101;-37
2021/11/05 11:36:58;;;;;;;75.85;35.13;;;10.30;84.20;;;;;;5070315;28;20043;-36
2021/11/05 11:39:26;;;;;;;73.88;33.78;;;10.30;83.50;;;;;;5074113;28;20021;-37
2021/11/05 11:41:52;;;;;;;76.78;33.72;;;10.30;83.70;;;;;;5076025;28;20107;-38
2021/11/05 11:44:22;;;;;;;79.03;33.95;;;10.30;83.60;;;;;;5076501;28;20032;-38
2021/11/05 11:46:56;;;;;;;71.63;36.92;;;10.30;84.00;;;;;;5076106;28;20028;-37
2021/11/05 11:49:46;;;;;;;71.85;35.65;;;10.10;84.30;;;;;;5075622;28;20393;-38
2021/11/05 11:52:15;;;;;;;70.13;33.53;;;10.40;83.90;;;;;;5070320;28;20044;-38
2021/11/05 11:54:42;;;;;;;61.40;34.00;;;10.40;83.60;;;;;;5073375;28;20029;-36
2021/11/05 11:57:14;;;;;;;73.95;36.58;;;10.20;84.50;;;;;;5075036;28;20495;-36
2021/11/05 11:59:41;;;;;;;70.45;35.28;;;10.00;85.20;;;;;;5075476;28;20024;-36
2021/11/05 12:02:50;;;;;;;68.38;33.90;;;10.10;85.60;;;;;;5074184;28;20467;-36
2021/11/05 12:05:19;;;;;;;70.65;32.83;;;10.40;84.20;;;;;;5032980;28;21063;-37
2021/11/05 12:08:05;;;;;;;64.10;29.55;;;10.20;84.70;;;;;;5069683;28;20033;-37
2021/11/05 12:10:30;;;;;;;72.47;35.03;;;10.30;85.10;;;;;;5075436;28;20021;-37
2021/11/05 12:12:56;;;;;;;80.82;37.50;;;10.30;84.50;;;;;;5074988;28;20036;-36
2021/11/05 12:15:22;;;;;;;80.63;38.97;;;10.40;84.90;;;;;;5075017;28;20123;-37
2021/11/05 12:17:51;;;;;;;67.18;37.50;;;10.60;84.70;;;;;;5074872;28;20131;-36
2021/11/05 12:20:33;;;;;;;60.58;34.10;;;10.60;84.70;;;;;;5073408;28;20054;-36
2021/11/05 12:23:11;;;;;;;64.55;34.72;;;10.50;85.10;;;;;;5075351;28;20113;-36
2021/11/05 12:25:57;;;;;;;64.13;32.45;;;10.40;85.60;;;;;;5075451;28;20025;-38
2021/11/05 12:28:25;;;;;;;59.75;33.95;;;10.70;85.20;;;;;;5075478;28;20025;-37
2021/11/05 12:30:53;;;;;;;58.10;30.92;;;10.90;84.10;;;;;;5074912;28;20028;-37
2021/11/05 12:33:33;;;;;;;57.40;29.65;;;11.20;83.80;;;;;;5075311;28;20021;-37